Time;durP1;ratioP1;P1;durP2;ratioP2;P2;SDS_P1;SDS_P2;PMS_P1;PMS_P2;Temp;Humidity;BMP_temperature;BMP_pressure;BME280_temperature;BME280_humidity;BME280_pressure;Samples;Min_cycle;Max_cycle;Signal;HPM_P1;HPM_P2
2022/12/03 00:01:12;;;;;;;8.85;7.97;;;4.80;99.90;;;;;;5073521;28;20640;-73
2022/12/03 00:03:39;;;;;;;9.88;8.98;;;4.80;99.90;;;;;;5068875;28;20190;-73
2022/12/03 00:06:06;;;;;;;9.65;8.85;;;4.70;99.90;;;;;;5070459;28;20226;-72
2022/12/03 00:08:33;;;;;;;9.13;8.32;;;4.70;99.90;;;;;;5070419;28;20198;-72
2022/12/03 00:11:00;;;;;;;9.98;9.07;;;4.70;99.90;;;;;;5067691;28;20240;-73
2022/12/03 00:13:27;;;;;;;9.88;9.00;;;4.70;99.90;;;;;;5071827;28;20209;-73
2022/12/03 00:15:56;;;;;;;9.05;8.27;;;4.70;99.90;;;;;;5071090;28;20190;-72
2022/12/03 00:18:23;;;;;;;9.45;8.55;;;4.70;99.90;;;;;;5071771;28;20194;-73
2022/12/03 00:20:50;;;;;;;9.60;8.80;;;4.70;99.90;;;;;;5066628;28;20225;-72
2022/12/03 00:23:17;;;;;;;9.88;8.98;;;4.70;99.90;;;;;;5074188;28;20692;-73
2022/12/03 00:25:44;;;;;;;11.43;10.32;;;4.70;99.90;;;;;;5077291;28;20199;-72
2022/12/03 00:28:11;;;;;;;10.25;9.35;;;4.70;99.90;;;;;;5070863;28;20707;-73
2022/12/03 00:30:38;;;;;;;10.63;9.63;;;4.60;99.90;;;;;;5067636;28;20222;-73
2022/12/03 00:33:07;;;;;;;10.45;9.55;;;4.60;99.90;;;;;;5069166;28;20202;-73
2022/12/03 00:35:34;;;;;;;10.68;9.75;;;4.60;99.90;;;;;;5072952;28;20571;-73
2022/12/03 00:38:01;;;;;;;10.38;9.38;;;4.50;99.90;;;;;;5069138;28;20218;-72
2022/12/03 00:40:28;;;;;;;10.10;9.15;;;4.50;99.90;;;;;;5068207;28;20210;-73
2022/12/03 00:42:55;;;;;;;10.10;9.20;;;4.50;99.90;;;;;;5070822;28;20233;-73
2022/12/03 00:45:22;;;;;;;10.15;9.25;;;4.50;99.90;;;;;;5065439;28;20198;-73
2022/12/03 00:47:49;;;;;;;10.63;9.63;;;4.50;99.90;;;;;;5068795;28;20221;-73
2022/12/03 00:50:18;;;;;;;9.63;8.73;;;4.50;99.90;;;;;;5067739;28;20714;-73
2022/12/03 00:52:45;;;;;;;10.07;9.18;;;4.50;99.90;;;;;;5070401;28;20700;-73
2022/12/03 00:55:12;;;;;;;10.70;9.70;;;4.50;99.90;;;;;;5070664;28;20225;-73
2022/12/03 00:57:39;;;;;;;10.88;9.88;;;4.50;99.90;;;;;;5068471;28;20224;-73
2022/12/03 01:00:07;;;;;;;10.05;9.20;;;4.50;99.90;;;;;;5070365;28;20198;-72
2022/12/03 01:02:34;;;;;;;9.43;8.63;;;4.40;99.90;;;;;;5068730;28;20214;-73
2022/12/03 01:05:01;;;;;;;10.18;9.20;;;4.40;99.90;;;;;;5068044;28;20210;-73
2022/12/03 01:07:30;;;;;;;9.55;8.65;;;4.40;99.90;;;;;;5068239;28;20219;-73
2022/12/03 01:09:57;;;;;;;10.52;9.63;;;4.50;99.90;;;;;;5070334;28;20259;-73
2022/12/03 01:12:24;;;;;;;9.75;8.82;;;4.50;99.90;;;;;;5056007;28;20217;-73
2022/12/03 01:14:51;;;;;;;10.43;9.52;;;4.40;99.90;;;;;;5064071;28;20199;-72
2022/12/03 01:17:18;;;;;;;10.52;9.55;;;4.40;99.90;;;;;;5069725;28;20226;-72
2022/12/03 01:19:45;;;;;;;9.85;9.05;;;4.40;99.90;;;;;;5078499;28;20198;-72
2022/12/03 01:22:12;;;;;;;9.82;8.93;;;4.40;99.90;;;;;;5068033;28;20761;-73
2022/12/03 01:24:41;;;;;;;9.60;8.70;;;4.40;99.90;;;;;;5070064;28;20191;-74
2022/12/03 01:27:08;;;;;;;8.88;8.07;;;4.40;99.90;;;;;;5067797;28;20327;-75
2022/12/03 01:29:35;;;;;;;9.25;8.50;;;4.40;99.90;;;;;;5069106;28;20205;-73
2022/12/03 01:32:16;;;;;;;9.27;8.48;;;4.40;99.90;;;;;;5068039;28;20617;-73
2022/12/03 01:34:44;;;;;;;9.35;8.55;;;4.40;99.90;;;;;;5068629;28;20197;-75
2022/12/03 01:37:11;;;;;;;9.13;8.32;;;4.40;99.90;;;;;;5068192;28;20917;-74
2022/12/03 01:39:38;;;;;;;9.38;8.57;;;4.30;99.90;;;;;;5064570;28;20198;-73
2022/12/03 01:42:07;;;;;;;9.27;8.43;;;4.30;99.90;;;;;;5066820;28;20213;-75
2022/12/03 01:44:39;;;;;;;9.00;8.10;;;4.30;99.90;;;;;;5069963;28;20195;-73
2022/12/03 01:47:10;;;;;;;8.52;7.72;;;4.30;99.90;;;;;;5064770;28;20218;-74
2022/12/03 01:49:42;;;;;;;8.50;7.80;;;4.20;99.90;;;;;;5069735;28;20672;-74
2022/12/03 01:52:13;;;;;;;8.20;7.50;;;4.20;99.90;;;;;;5066823;28;20222;-73
2022/12/03 01:54:44;;;;;;;8.77;7.97;;;4.20;99.90;;;;;;5065543;28;20194;-74
2022/12/03 01:57:21;;;;;;;8.68;7.93;;;4.20;99.90;;;;;;5065184;28;20215;-73
2022/12/03 01:59:49;;;;;;;8.73;8.02;;;4.20;99.90;;;;;;5066624;28;20194;-72
2022/12/03 02:02:21;;;;;;;9.20;8.27;;;4.20;99.90;;;;;;5066884;28;20218;-74
2022/12/03 02:04:51;;;;;;;8.27;7.68;;;4.20;99.90;;;;;;5062082;28;20340;-72
2022/12/03 02:07:25;;;;;;;8.60;7.80;;;4.20;99.90;;;;;;5065901;28;20214;-75
2022/12/03 02:09:52;;;;;;;9.73;8.82;;;4.20;99.90;;;;;;5067998;28;20281;-73
2022/12/03 02:12:24;;;;;;;8.68;7.88;;;4.20;99.90;;;;;;5066108;28;20808;-75
2022/12/03 02:14:52;;;;;;;8.90;8.05;;;4.20;99.90;;;;;;5070953;28;20194;-73
2022/12/03 02:17:19;;;;;;;9.93;9.10;;;4.20;99.90;;;;;;5067583;28;20224;-74
2022/12/03 02:19:47;;;;;;;8.60;7.90;;;4.20;99.90;;;;;;5069202;28;20245;-73
2022/12/03 02:22:26;;;;;;;8.68;7.97;;;4.20;99.90;;;;;;5064942;28;20214;-76
2022/12/03 02:24:58;;;;;;;8.40;7.70;;;4.10;99.90;;;;;;5068124;28;20537;-74
2022/12/03 02:27:28;;;;;;;8.48;7.68;;;4.20;99.90;;;;;;5070184;28;20332;-73
2022/12/03 02:29:55;;;;;;;9.13;8.32;;;4.20;99.90;;;;;;5064646;28;20248;-75
2022/12/03 02:32:22;;;;;;;9.85;8.98;;;4.20;99.90;;;;;;5068127;28;20225;-75
2022/12/03 02:34:50;;;;;;;8.95;8.15;;;4.20;99.90;;;;;;5068370;28;20190;-76
2022/12/03 02:37:22;;;;;;;9.30;8.50;;;4.20;99.90;;;;;;5063981;28;20624;-75
2022/12/03 02:39:52;;;;;;;9.48;8.57;;;4.20;99.90;;;;;;5064960;28;20205;-73
2022/12/03 02:42:35;;;;;;;8.90;8.20;;;4.20;99.90;;;;;;5068003;28;20580;-73
2022/12/03 02:45:07;;;;;;;9.30;8.43;;;4.20;99.90;;;;;;5061254;28;20198;-76
2022/12/03 02:47:38;;;;;;;8.68;7.88;;;4.30;99.90;;;;;;5064983;28;20730;-73
2022/12/03 02:50:06;;;;;;;8.82;8.02;;;4.20;99.90;;;;;;5066155;28;20202;-73
2022/12/03 02:52:34;;;;;;;9.20;8.30;;;4.30;99.90;;;;;;5068679;28;20221;-72
2022/12/03 02:55:03;;;;;;;9.18;8.38;;;4.30;99.90;;;;;;5067749;28;20202;-73
2022/12/03 02:57:30;;;;;;;8.98;8.23;;;4.30;99.90;;;;;;5067991;28;20237;-73
2022/12/03 02:59:57;;;;;;;9.60;8.68;;;4.30;99.90;;;;;;5067844;28;20204;-74
2022/12/03 03:02:27;;;;;;;8.25;7.45;;;4.30;99.90;;;;;;5058818;28;20226;-72
2022/12/03 03:04:54;;;;;;;8.25;7.63;;;4.30;99.90;;;;;;5066481;28;20717;-73
2022/12/03 03:07:22;;;;;;;9.18;8.38;;;4.30;99.90;;;;;;5071629;28;20223;-73
2022/12/03 03:09:49;;;;;;;9.38;8.57;;;4.40;99.90;;;;;;5067744;28;20204;-73
2022/12/03 03:12:16;;;;;;;9.63;8.73;;;4.40;99.90;;;;;;5061175;28;20217;-72
2022/12/03 03:14:44;;;;;;;9.20;8.40;;;4.40;99.90;;;;;;5064997;28;20202;-74
2022/12/03 03:17:11;;;;;;;9.15;8.35;;;4.40;99.90;;;;;;5067997;28;20222;-72
2022/12/03 03:19:39;;;;;;;9.40;8.60;;;4.40;99.90;;;;;;5066411;28;20198;-72
2022/12/03 03:22:06;;;;;;;8.40;7.70;;;4.40;99.90;;;;;;5059517;28;20218;-74
2022/12/03 03:24:33;;;;;;;8.65;7.95;;;4.40;99.90;;;;;;5067972;28;20194;-73
2022/12/03 03:27:01;;;;;;;8.85;8.05;;;4.40;99.90;;;;;;5063487;28;20252;-73
2022/12/03 03:29:28;;;;;;;9.55;8.70;;;4.40;99.90;;;;;;5065989;28;20191;-74
2022/12/03 03:31:55;;;;;;;8.43;7.72;;;4.40;99.90;;;;;;5059481;28;21600;-73
2022/12/03 03:34:22;;;;;;;8.70;8.00;;;4.40;99.90;;;;;;5067640;28;20614;-73
2022/12/03 03:36:51;;;;;;;9.15;8.35;;;4.40;99.90;;;;;;5065214;28;20588;-73
2022/12/03 03:39:18;;;;;;;8.88;8.07;;;4.40;99.90;;;;;;5067641;28;20564;-73
2022/12/03 03:41:46;;;;;;;8.43;7.72;;;4.40;99.90;;;;;;5066819;28;20218;-73
2022/12/03 03:44:14;;;;;;;9.80;8.95;;;4.40;99.90;;;;;;5068118;28;20538;-74
2022/12/03 03:46:42;;;;;;;9.38;8.57;;;4.40;99.90;;;;;;5066615;28;20218;-72
2022/12/03 03:49:10;;;;;;;9.40;8.50;;;4.30;99.90;;;;;;5062560;28;20240;-73
2022/12/03 03:51:38;;;;;;;8.65;7.93;;;4.30;99.90;;;;;;5066821;28;20250;-73
2022/12/03 03:54:08;;;;;;;9.52;8.73;;;4.30;99.90;;;;;;5067832;28;20206;-72
2022/12/03 03:56:35;;;;;;;7.95;7.35;;;4.30;99.90;;;;;;5064212;28;20222;-72
2022/12/03 03:59:03;;;;;;;9.32;8.52;;;4.40;99.90;;;;;;5067530;28;20203;-73
2022/12/03 04:01:30;;;;;;;9.45;8.55;;;4.40;99.90;;;;;;5071180;28;20287;-73
2022/12/03 04:03:59;;;;;;;9.55;8.65;;;4.40;99.90;;;;;;5063762;28;20198;-73
2022/12/03 04:06:26;;;;;;;8.90;8.20;;;4.40;99.90;;;;;;5066590;28;20241;-72
2022/12/03 04:08:53;;;;;;;10.20;9.30;;;4.40;99.90;;;;;;5062981;28;20206;-72
2022/12/03 04:14:06;;;;;;;10.73;9.82;;;4.30;99.90;;;;;;5065820;28;20224;-74
2022/12/03 04:16:33;;;;;;;9.38;8.48;;;4.30;99.90;;;;;;5064772;28;20687;-74
2022/12/03 04:19:00;;;;;;;9.13;8.32;;;4.30;99.90;;;;;;5067596;28;20202;-76
2022/12/03 04:24:11;;;;;;;8.98;8.18;;;4.30;99.90;;;;;;5066766;28;20206;-73
2022/12/03 04:29:24;;;;;;;9.32;8.43;;;4.30;99.90;;;;;;5067851;28;20333;-74
2022/12/03 04:37:20;;;;;;;10.02;9.02;;;4.40;99.90;;;;;;5068527;28;20270;-74
2022/12/03 04:39:47;;;;;;;9.15;8.43;;;4.30;99.90;;;;;;5073516;28;20679;-73
2022/12/03 04:42:16;;;;;;;9.50;8.63;;;4.30;99.90;;;;;;5067235;28;20432;-72
2022/12/03 04:44:43;;;;;;;9.55;8.75;;;4.30;99.90;;;;;;5067840;28;20202;-74
2022/12/03 04:47:12;;;;;;;8.98;8.27;;;4.30;99.90;;;;;;5069448;28;20572;-73
2022/12/03 04:49:41;;;;;;;9.32;8.52;;;4.30;99.90;;;;;;5068110;28;20199;-73
2022/12/03 04:52:09;;;;;;;8.40;7.70;;;4.30;99.90;;;;;;5068354;28;20218;-72
2022/12/03 04:54:36;;;;;;;8.43;7.72;;;4.30;99.90;;;;;;5070818;28;20209;-73
2022/12/03 04:57:04;;;;;;;9.25;8.45;;;4.30;99.90;;;;;;5067844;28;20222;-73
2022/12/03 04:59:33;;;;;;;8.65;7.95;;;4.30;99.90;;;;;;5070554;28;20280;-73
2022/12/03 05:02:01;;;;;;;8.80;8.00;;;4.30;99.90;;;;;;5067162;28;20222;-73
2022/12/03 05:04:28;;;;;;;8.27;7.57;;;4.30;99.90;;;;;;5070907;28;20203;-73
2022/12/03 05:06:55;;;;;;;8.05;7.35;;;4.30;99.90;;;;;;5066328;28;20229;-72
2022/12/03 05:09:22;;;;;;;8.82;8.02;;;4.40;99.90;;;;;;5065084;28;20474;-72
2022/12/03 05:11:49;;;;;;;8.70;7.93;;;4.40;99.90;;;;;;5070182;28;20699;-72
2022/12/03 05:14:16;;;;;;;8.48;7.78;;;4.40;99.90;;;;;;5070374;28;20759;-75
2022/12/03 05:16:45;;;;;;;7.63;6.93;;;4.40;99.90;;;;;;5066473;28;20260;-73
2022/12/03 05:19:12;;;;;;;8.90;8.10;;;4.40;99.90;;;;;;5067939;28;20198;-74
2022/12/03 05:21:38;;;;;;;8.43;7.72;;;4.50;99.90;;;;;;5066510;28;20222;-73
2022/12/03 05:24:06;;;;;;;7.65;7.00;;;4.50;99.90;;;;;;5066337;28;20222;-74
2022/12/03 05:26:33;;;;;;;8.55;7.85;;;4.50;99.90;;;;;;5066395;28;20210;-72
2022/12/03 05:29:00;;;;;;;8.82;8.13;;;4.40;99.90;;;;;;5065311;28;20198;-72
2022/12/03 05:31:27;;;;;;;8.75;8.05;;;4.40;99.90;;;;;;5057658;28;21074;-73
2022/12/03 05:33:55;;;;;;;10.35;9.48;;;4.40;99.90;;;;;;5069020;28;20194;-74
2022/12/03 05:36:24;;;;;;;12.23;11.23;;;4.20;99.90;;;;;;5066085;28;20229;-72
2022/12/03 05:38:51;;;;;;;10.55;9.63;;;4.20;99.90;;;;;;5060089;28;20255;-73
2022/12/03 05:44:03;;;;;;;11.57;10.48;;;4.00;99.90;;;;;;5069187;28;20605;-76
2022/12/03 05:46:30;;;;;;;10.10;9.20;;;3.90;99.90;;;;;;5065569;28;20688;-73
2022/12/03 05:48:58;;;;;;;9.73;8.93;;;3.90;99.90;;;;;;5066261;28;20206;-74
2022/12/03 05:51:25;;;;;;;9.48;8.65;;;3.90;99.90;;;;;;5066341;28;20241;-74
2022/12/03 05:53:53;;;;;;;9.35;8.55;;;4.00;99.90;;;;;;5072707;28;20247;-73
2022/12/03 05:56:20;;;;;;;8.93;8.13;;;4.00;99.90;;;;;;5067424;28;20833;-72
2022/12/03 05:58:47;;;;;;;11.75;10.65;;;4.10;99.90;;;;;;5067644;28;20198;-74
2022/12/03 06:01:14;;;;;;;9.77;8.88;;;4.00;99.90;;;;;;5067346;28;21587;-73
2022/12/03 06:03:41;;;;;;;8.80;8.10;;;4.00;99.90;;;;;;5068201;28;20241;-74
2022/12/03 06:06:09;;;;;;;8.80;8.10;;;4.10;99.90;;;;;;5063753;28;20210;-74
2022/12/03 06:08:36;;;;;;;8.40;7.70;;;4.10;99.90;;;;;;5064565;28;20199;-72
2022/12/03 06:11:03;;;;;;;8.82;7.60;;;4.20;99.90;;;;;;5068047;28;20236;-72
2022/12/03 06:13:30;;;;;;;7.93;7.32;;;4.20;99.90;;;;;;5063505;28;20546;-73
2022/12/03 06:15:57;;;;;;;8.20;7.50;;;4.20;99.90;;;;;;5066652;28;20229;-73
2022/12/03 06:18:25;;;;;;;8.27;7.57;;;4.20;99.90;;;;;;5070573;28;20198;-76
2022/12/03 06:20:52;;;;;;;8.25;7.65;;;4.30;99.90;;;;;;5067650;28;20824;-72
2022/12/03 06:23:20;;;;;;;7.80;7.20;;;4.30;99.90;;;;;;5065779;28;20222;-76
2022/12/03 06:25:47;;;;;;;7.57;6.97;;;4.30;99.90;;;;;;5063997;28;20670;-75
2022/12/03 06:28:14;;;;;;;7.40;6.75;;;4.30;99.90;;;;;;5065740;28;20194;-75
2022/12/03 06:30:41;;;;;;;7.15;6.55;;;4.40;99.90;;;;;;5066743;28;20634;-73
2022/12/03 06:33:08;;;;;;;7.82;7.22;;;4.40;99.90;;;;;;5064673;28;20206;-72
2022/12/03 06:35:35;;;;;;;8.45;7.65;;;4.40;99.90;;;;;;5063089;28;20195;-71
2022/12/03 06:38:02;;;;;;;9.18;8.40;;;4.30;99.90;;;;;;5064262;28;20206;-72
2022/12/03 06:40:31;;;;;;;8.27;7.57;;;4.30;99.90;;;;;;5066030;28;20198;-72
2022/12/03 06:42:58;;;;;;;7.55;6.95;;;4.30;99.90;;;;;;5065357;28;20221;-74
2022/12/03 06:45:25;;;;;;;7.88;7.28;;;4.30;99.90;;;;;;5069547;28;20202;-73
2022/12/03 06:47:52;;;;;;;7.95;7.32;;;4.30;99.90;;;;;;5068399;28;20721;-73
2022/12/03 06:50:19;;;;;;;7.32;6.72;;;4.30;99.90;;;;;;5064481;28;20206;-73
2022/12/03 06:52:46;;;;;;;7.15;6.57;;;4.30;99.90;;;;;;5061951;28;20222;-73
2022/12/03 06:55:13;;;;;;;7.80;7.20;;;4.40;99.90;;;;;;5065622;28;20694;-72
2022/12/03 06:57:42;;;;;;;9.50;8.70;;;4.40;99.90;;;;;;5068544;28;20217;-72
2022/12/03 07:00:10;;;;;;;9.45;8.65;;;4.30;99.90;;;;;;5061209;28;20652;-72
2022/12/03 07:02:37;;;;;;;9.65;8.85;;;4.30;99.90;;;;;;5067374;28;20751;-77
2022/12/03 07:05:05;;;;;;;8.88;8.18;;;4.30;99.90;;;;;;5065927;28;20215;-74
2022/12/03 07:07:32;;;;;;;7.88;7.18;;;4.20;99.90;;;;;;5064220;28;20217;-73
2022/12/03 07:09:59;;;;;;;9.25;8.48;;;4.30;99.90;;;;;;5067799;28;20209;-73
2022/12/03 07:12:26;;;;;;;8.45;7.75;;;4.30;99.90;;;;;;5058955;28;20765;-77
2022/12/03 07:14:55;;;;;;;7.95;7.25;;;4.30;99.90;;;;;;5068004;28;20609;-75
2022/12/03 07:17:22;;;;;;;9.13;8.32;;;4.30;99.90;;;;;;5062612;28;20588;-73
2022/12/03 07:19:49;;;;;;;8.35;7.72;;;4.40;99.90;;;;;;5058111;28;20202;-73
2022/12/03 07:22:16;;;;;;;7.65;7.05;;;4.40;99.90;;;;;;5067405;28;20718;-73
2022/12/03 07:24:43;;;;;;;7.47;6.88;;;4.40;99.90;;;;;;5062033;28;20195;-74
2022/12/03 07:27:11;;;;;;;8.35;7.60;;;4.50;99.90;;;;;;5078407;22;20202;-74
2022/12/03 07:29:39;;;;;;;7.30;6.70;;;4.50;99.90;;;;;;5041728;28;20871;-74
2022/12/03 07:32:07;;;;;;;7.63;7.03;;;4.50;99.90;;;;;;5048482;28;20786;-73
2022/12/03 07:34:35;;;;;;;7.50;6.90;;;4.60;99.90;;;;;;5042211;28;20191;-76
2022/12/03 07:37:02;;;;;;;6.68;6.18;;;4.60;99.90;;;;;;5041370;28;20246;-70
2022/12/03 07:39:29;;;;;;;7.45;6.85;;;4.70;99.90;;;;;;5045728;28;20227;-73
2022/12/03 07:41:57;;;;;;;7.13;6.53;;;4.70;99.90;;;;;;5053397;28;20222;-73
2022/12/03 07:44:24;;;;;;;7.03;6.53;;;4.80;99.90;;;;;;5050941;28;20342;-70
2022/12/03 07:46:51;;;;;;;7.82;7.07;;;4.80;99.90;;;;;;5039642;28;20219;-71
2022/12/03 07:49:20;;;;;;;7.63;7.03;;;4.80;99.90;;;;;;5049261;28;20229;-74
2022/12/03 07:51:53;;;;;;;7.40;6.80;;;4.80;99.90;;;;;;5038179;28;20719;-74
2022/12/03 07:54:21;;;;;;;7.75;7.15;;;4.80;99.90;;;;;;5027085;28;20195;-71
2022/12/03 07:56:49;;;;;;;7.88;7.28;;;4.90;99.90;;;;;;5037073;28;20218;-72
2022/12/03 07:59:17;;;;;;;7.32;6.72;;;4.80;99.90;;;;;;5044668;28;20219;-72
2022/12/03 08:01:44;;;;;;;7.88;7.28;;;4.90;99.90;;;;;;5020538;28;20243;-79
2022/12/03 08:04:13;;;;;;;8.85;8.15;;;4.80;99.90;;;;;;5018456;28;20211;-74
2022/12/03 08:06:42;;;;;;;8.07;7.43;;;4.90;99.90;;;;;;5040836;28;20378;-74
2022/12/03 08:09:09;;;;;;;8.43;7.72;;;4.90;99.90;;;;;;5043436;28;20288;-70
2022/12/03 08:11:36;;;;;;;8.60;7.85;;;4.90;99.90;;;;;;5040725;28;20218;-72
2022/12/03 08:14:12;;;;;;;10.23;9.32;;;4.80;99.90;;;;;;5029430;28;20195;-70
2022/12/03 08:16:40;;;;;;;9.57;8.77;;;4.80;99.90;;;;;;5041515;28;20656;-73
2022/12/03 08:19:11;;;;;;;12.00;10.90;;;4.80;99.90;;;;;;5045664;28;20231;-73
2022/12/03 08:21:39;;;;;;;12.10;11.00;;;4.80;99.90;;;;;;5047862;28;20223;-71
2022/12/03 08:24:14;;;;;;;10.50;9.55;;;4.80;99.90;;;;;;5050038;28;20595;-72
2022/12/03 08:26:43;;;;;;;9.73;8.82;;;4.70;99.90;;;;;;5043057;28;20210;-72
2022/12/03 08:29:12;;;;;;;9.15;8.35;;;4.70;99.90;;;;;;5026332;28;20265;-70
2022/12/03 08:31:40;;;;;;;9.45;8.65;;;4.70;99.90;;;;;;5037863;28;20222;-70
2022/12/03 08:34:17;;;;;;;8.73;7.95;;;4.70;99.90;;;;;;5038729;28;20199;-74
2022/12/03 08:36:46;;;;;;;9.35;8.45;;;4.80;99.90;;;;;;5048253;28;20250;-71
2022/12/03 08:42:43;;;;;;;10.15;9.25;;;4.90;99.90;;;;;;5076948;27;20521;-73
2022/12/03 08:45:38;;;;;;;9.73;8.82;;;4.90;99.90;;;;;;5059389;28;20191;-73
2022/12/03 08:48:28;;;;;;;9.98;9.07;;;4.90;99.90;;;;;;5042646;28;20285;-73
2022/12/03 08:50:58;;;;;;;10.13;9.32;;;4.90;99.90;;;;;;5042644;28;20778;-73
2022/12/03 08:53:34;;;;;;;9.70;8.90;;;5.00;99.90;;;;;;5060367;28;20225;-72
2022/12/03 08:56:04;;;;;;;9.52;8.63;;;5.00;99.90;;;;;;5058211;28;20230;-73
2022/12/03 08:58:38;;;;;;;8.77;8.07;;;5.10;99.90;;;;;;5037755;28;20224;-76
2022/12/03 09:01:30;;;;;;;9.52;8.73;;;5.10;99.90;;;;;;5044701;28;20306;-72
2022/12/03 09:04:13;;;;;;;7.88;7.28;;;5.10;99.90;;;;;;5060286;28;20285;-71
2022/12/03 09:06:41;;;;;;;8.15;7.45;;;5.10;99.90;;;;;;5049050;28;20215;-72
2022/12/03 09:09:08;;;;;;;8.65;7.85;;;5.20;99.90;;;;;;5037427;28;20223;-73
2022/12/03 09:11:35;;;;;;;9.75;8.90;;;5.30;99.90;;;;;;5039201;28;20218;-72
2022/12/03 09:14:04;;;;;;;11.05;10.00;;;5.30;99.90;;;;;;5040091;28;20611;-73
2022/12/03 09:16:32;;;;;;;10.95;9.95;;;5.30;99.90;;;;;;5047452;28;20222;-73
2022/12/03 09:18:59;;;;;;;10.45;9.55;;;5.20;99.90;;;;;;5049729;28;20230;-73
2022/12/03 09:21:26;;;;;;;10.73;9.77;;;5.20;99.90;;;;;;5051079;28;20451;-72
2022/12/03 09:23:53;;;;;;;11.20;10.10;;;5.20;99.90;;;;;;5040844;28;20230;-73
2022/12/03 09:26:22;;;;;;;9.43;8.60;;;5.10;99.90;;;;;;5041526;28;20219;-73
2022/12/03 09:28:50;;;;;;;10.77;9.88;;;5.00;99.90;;;;;;5041460;28;20436;-73
2022/12/03 09:31:18;;;;;;;10.57;9.60;;;5.00;99.90;;;;;;5039924;28;20219;-72
2022/12/03 09:33:46;;;;;;;10.07;9.25;;;5.00;99.90;;;;;;5039307;28;20653;-74
2022/12/03 09:36:13;;;;;;;8.70;8.05;;;5.00;99.90;;;;;;5043061;28;20214;-73
2022/12/03 09:38:41;;;;;;;8.43;7.75;;;5.00;99.90;;;;;;5041836;28;20712;-73
2022/12/03 09:41:09;;;;;;;8.35;7.65;;;5.10;99.90;;;;;;5034898;28;20239;-73
2022/12/03 09:43:37;;;;;;;8.15;7.50;;;5.10;99.90;;;;;;5046608;28;20179;-72
2022/12/03 09:46:05;;;;;;;7.72;7.13;;;5.20;99.90;;;;;;5052408;28;20739;-72
2022/12/03 09:48:36;;;;;;;7.75;7.15;;;5.30;99.90;;;;;;5041527;28;20223;-73
2022/12/03 09:51:03;;;;;;;7.00;6.40;;;5.30;99.90;;;;;;5042737;28;20219;-72
2022/12/03 09:53:32;;;;;;;8.50;7.80;;;5.40;99.90;;;;;;5022574;28;20203;-73
2022/12/03 09:56:02;;;;;;;8.75;8.02;;;5.30;99.90;;;;;;5025350;28;20226;-73
2022/12/03 09:58:31;;;;;;;8.57;7.75;;;5.30;99.90;;;;;;5028262;28;20587;-73
2022/12/03 10:00:59;;;;;;;8.55;7.85;;;5.30;99.90;;;;;;5030410;28;20302;-73
2022/12/03 10:03:30;;;;;;;7.35;6.75;;;5.40;99.90;;;;;;5022929;28;20195;-73
2022/12/03 10:06:04;;;;;;;8.30;7.60;;;5.50;99.90;;;;;;5030413;28;20255;-73
2022/12/03 10:08:32;;;;;;;7.03;6.50;;;5.50;99.90;;;;;;5026074;28;20223;-72
2022/12/03 10:11:00;;;;;;;8.15;7.40;;;5.60;99.90;;;;;;5019956;28;20286;-73
2022/12/03 10:13:30;;;;;;;8.35;7.65;;;5.60;99.90;;;;;;5030689;28;20200;-73
2022/12/03 10:16:01;;;;;;;8.52;7.72;;;5.60;99.90;;;;;;5028606;28;20238;-73
2022/12/03 10:18:30;;;;;;;8.05;7.35;;;5.70;99.90;;;;;;5025500;28;20230;-72
2022/12/03 10:20:59;;;;;;;8.48;7.78;;;5.70;99.90;;;;;;5027926;28;20650;-73
2022/12/03 10:23:29;;;;;;;8.93;8.10;;;5.70;99.90;;;;;;5023995;28;20207;-74
2022/12/03 10:25:58;;;;;;;8.27;7.57;;;5.80;99.90;;;;;;5018555;28;20228;-73
2022/12/03 10:28:31;;;;;;;7.53;6.93;;;5.80;99.90;;;;;;5023220;28;20226;-72
2022/12/03 10:30:59;;;;;;;8.32;7.63;;;5.90;99.90;;;;;;5021149;28;20224;-72
2022/12/03 10:33:32;;;;;;;7.82;7.22;;;6.00;99.90;;;;;;5024647;28;20206;-73
2022/12/03 10:39:12;;;;;;;16.05;11.57;;;6.00;99.90;;;;;;5111938;27;20888;-73
2022/12/03 10:41:40;;;;;;;33.83;14.63;;;6.10;99.90;;;;;;5045465;28;20708;-74
2022/12/03 10:44:19;;;;;;;26.55;14.02;;;6.10;99.90;;;;;;5029824;28;20212;-74
2022/12/03 10:47:05;;;;;;;18.00;10.55;;;6.30;99.90;;;;;;5033717;28;20215;-73
2022/12/03 10:49:32;;;;;;;14.82;9.82;;;6.40;99.90;;;;;;5031809;28;20215;-73
2022/12/03 10:52:00;;;;;;;10.07;8.77;;;6.40;99.90;;;;;;5043698;28;20214;-74
2022/12/03 10:54:31;;;;;;;10.52;9.40;;;6.50;99.90;;;;;;5053765;28;20195;-72
2022/12/03 10:56:59;;;;;;;11.40;10.30;;;6.50;99.90;;;;;;5037929;28;20702;-73
2022/12/03 10:59:30;;;;;;;12.15;11.05;;;6.50;99.90;;;;;;5037623;28;20226;-73
2022/12/03 11:01:58;;;;;;;12.00;10.85;;;6.40;99.90;;;;;;5035538;28;20219;-73
2022/12/03 11:04:34;;;;;;;11.02;10.02;;;6.40;99.90;;;;;;5038579;28;20199;-73
2022/12/03 11:07:02;;;;;;;11.32;10.13;;;6.30;99.90;;;;;;5033294;28;20700;-73
2022/12/03 11:09:33;;;;;;;11.15;10.15;;;6.30;99.90;;;;;;5034594;28;20214;-73
2022/12/03 11:12:05;;;;;;;10.60;9.60;;;6.30;99.90;;;;;;5029576;28;20215;-73
2022/12/03 11:15:05;;;;;;;11.05;10.05;;;6.30;99.90;;;;;;5029995;28;20636;-73
2022/12/03 11:17:50;;;;;;;14.63;13.23;;;6.30;99.90;;;;;;5037129;28;20211;-73
2022/12/03 11:21:09;;;;;;;13.45;12.20;;;6.30;99.90;;;;;;5036050;28;20215;-73
2022/12/03 11:24:09;;;;;;;12.82;10.73;;;6.30;99.90;;;;;;5032147;28;20306;-74
2022/12/03 11:27:17;;;;;;;10.57;9.60;;;6.40;99.90;;;;;;5035476;28;20219;-73
2022/12/03 11:29:53;;;;;;;10.30;9.50;;;6.50;99.90;;;;;;5041870;28;20227;-73
2022/12/03 11:33:06;;;;;;;11.45;10.45;;;6.50;99.90;;;;;;5028629;28;20223;-73
2022/12/03 11:35:52;;;;;;;10.57;9.57;;;6.60;99.90;;;;;;5044093;28;20209;-76
2022/12/03 11:38:54;;;;;;;11.70;10.38;;;6.60;99.90;;;;;;5029361;28;20227;-73
2022/12/03 11:41:25;;;;;;;11.25;10.23;;;6.60;99.90;;;;;;5036971;28;20226;-74
2022/12/03 11:44:03;;;;;;;10.55;9.55;;;6.60;99.90;;;;;;5042729;28;20831;-74
2022/12/03 11:46:38;;;;;;;10.70;9.70;;;6.50;99.90;;;;;;5029542;28;20242;-73
2022/12/03 11:49:29;;;;;;;10.90;9.98;;;6.50;99.90;;;;;;5023774;28;20215;-73
2022/12/03 11:51:57;;;;;;;11.45;10.45;;;6.50;99.90;;;;;;5020172;28;20223;-75
2022/12/03 11:54:24;;;;;;;9.65;8.85;;;6.60;99.90;;;;;;5017993;28;20199;-74
2022/12/03 11:56:53;;;;;;;10.68;9.73;;;6.60;99.90;;;;;;5018406;28;20230;-74
2022/12/03 11:59:22;;;;;;;9.90;9.00;;;6.60;99.90;;;;;;5021114;28;20572;-74
2022/12/03 12:01:49;;;;;;;10.68;9.75;;;6.60;99.90;;;;;;5019535;28;20225;-74
2022/12/03 12:04:34;;;;;;;12.20;11.00;;;6.60;99.90;;;;;;5024254;28;20212;-73
2022/12/03 12:07:02;;;;;;;12.30;11.10;;;6.60;99.90;;;;;;5018984;28;20224;-74
2022/12/03 12:09:50;;;;;;;12.27;11.10;;;6.60;99.90;;;;;;5020979;28;20212;-74
2022/12/03 12:12:28;;;;;;;10.65;9.65;;;6.50;99.90;;;;;;5028842;28;20310;-74
2022/12/03 12:14:58;;;;;;;11.02;9.57;;;6.50;99.90;;;;;;5050820;28;20743;-74
2022/12/03 12:17:43;;;;;;;11.70;10.60;;;6.60;99.90;;;;;;5017666;28;20223;-74
2022/12/03 12:20:32;;;;;;;10.60;9.65;;;6.60;99.90;;;;;;5028583;28;20220;-74
2022/12/03 12:23:21;;;;;;;12.45;11.15;;;6.60;99.90;;;;;;5018553;28;20216;-74
2022/12/03 12:25:48;;;;;;;11.60;10.60;;;6.50;99.90;;;;;;5025850;28;20211;-73
2022/12/03 12:28:16;;;;;;;10.63;9.68;;;6.50;99.90;;;;;;5020996;28;20585;-74
2022/12/03 12:30:44;;;;;;;11.52;10.43;;;6.60;99.90;;;;;;5028152;28;20200;-75
2022/12/03 12:33:18;;;;;;;10.73;9.70;;;6.60;99.90;;;;;;5027934;28;20203;-74
2022/12/03 12:35:46;;;;;;;10.50;9.50;;;6.70;99.90;;;;;;5024861;28;20202;-75
2022/12/03 12:38:16;;;;;;;11.02;9.80;;;6.70;99.90;;;;;;5013643;28;20223;-74
2022/12/03 12:40:47;;;;;;;9.48;8.57;;;6.90;99.90;;;;;;5041242;28;20574;-74
2022/12/03 12:43:24;;;;;;;9.38;8.57;;;6.80;99.90;;;;;;5022506;28;20192;-73
2022/12/03 12:45:53;;;;;;;9.30;8.50;;;6.80;99.90;;;;;;5016247;28;20948;-74
2022/12/03 12:48:27;;;;;;;9.35;8.55;;;6.80;99.90;;;;;;5024961;28;20208;-74
2022/12/03 12:51:00;;;;;;;11.77;10.68;;;6.80;99.90;;;;;;5018554;28;20204;-74
2022/12/03 12:53:29;;;;;;;10.23;9.23;;;6.70;99.90;;;;;;5019368;28;20200;-74
2022/12/03 12:55:59;;;;;;;10.60;9.60;;;6.60;99.90;;;;;;5024968;28;20246;-74
2022/12/03 12:58:31;;;;;;;9.90;8.77;;;6.60;99.90;;;;;;5033742;28;20231;-74
2022/12/03 13:01:06;;;;;;;10.05;9.15;;;6.50;99.90;;;;;;5027480;28;20224;-73
2022/12/03 13:03:37;;;;;;;9.90;8.90;;;6.50;99.90;;;;;;5025288;28;20278;-72
2022/12/03 13:06:06;;;;;;;9.82;8.93;;;6.40;99.90;;;;;;5024074;28;20224;-74
2022/12/03 13:08:39;;;;;;;9.20;8.40;;;6.40;99.90;;;;;;5014778;28;21240;-74
2022/12/03 13:11:11;;;;;;;9.25;8.45;;;6.40;99.90;;;;;;5023549;28;20277;-74
2022/12/03 13:13:41;;;;;;;9.07;8.30;;;6.40;99.90;;;;;;5065092;28;20227;-72
2022/12/03 13:16:14;;;;;;;8.23;7.53;;;6.40;99.90;;;;;;5026785;28;20219;-74
2022/12/03 13:18:45;;;;;;;8.40;7.70;;;6.30;99.90;;;;;;5017585;28;20238;-71
2022/12/03 13:21:25;;;;;;;8.30;7.60;;;6.30;99.90;;;;;;5019850;28;20223;-73
2022/12/03 13:23:54;;;;;;;8.80;8.02;;;6.20;99.90;;;;;;5012615;28;20200;-73
2022/12/03 13:26:24;;;;;;;8.38;7.68;;;6.20;99.90;;;;;;5027316;28;20226;-76
2022/12/03 13:28:52;;;;;;;7.90;7.20;;;6.20;99.90;;;;;;5013333;28;20266;-72
2022/12/03 13:31:25;;;;;;;7.00;6.45;;;6.30;99.90;;;;;;5017269;28;20219;-73